createdAt,value
2018-08-09T00:02:10.381Z,20.60
2018-08-09T00:04:39.671Z,20.60
2018-08-09T00:07:08.913Z,20.60
2018-08-09T00:09:38.159Z,20.60
2018-08-09T00:12:07.273Z,20.60
2018-08-09T00:14:36.558Z,20.50
2018-08-09T00:17:05.709Z,20.60
2018-08-09T00:19:34.833Z,20.60
2018-08-09T00:22:03.983Z,20.70
2018-08-09T00:24:33.089Z,20.70
2018-08-09T00:27:02.285Z,20.60
2018-08-09T00:29:31.509Z,20.50
2018-08-09T00:32:00.779Z,20.50
2018-08-09T00:34:29.943Z,20.60
2018-08-09T00:36:59.069Z,20.30
2018-08-09T00:39:28.415Z,20.20
2018-08-09T00:41:57.591Z,20.20
2018-08-09T00:44:26.837Z,20.20
2018-08-09T00:46:55.961Z,19.90
2018-08-09T00:49:25.084Z,19.90
2018-08-09T00:51:54.401Z,19.50
2018-08-09T00:54:23.617Z,19.50
2018-08-09T00:56:52.911Z,19.60
2018-08-09T00:59:22.122Z,19.40
2018-08-09T01:01:51.326Z,19.40
2018-08-09T01:04:20.557Z,19.40
2018-08-09T01:06:49.762Z,19.40
2018-08-09T01:09:18.901Z,19.50
2018-08-09T01:11:48.169Z,19.70
2018-08-09T01:14:17.405Z,19.70
2018-08-09T01:16:46.677Z,19.80
2018-08-09T01:19:15.999Z,19.80
2018-08-09T01:21:45.152Z,19.80
2018-08-09T01:24:14.297Z,19.70
2018-08-09T01:26:43.577Z,19.60
2018-08-09T01:29:12.729Z,19.60
2018-08-09T01:31:41.883Z,19.60
2018-08-09T01:34:11.671Z,19.70
2018-08-09T01:36:40.885Z,19.70
2018-08-09T01:39:14.393Z,19.60
2018-08-09T01:41:54.486Z,19.50
2018-08-09T01:44:23.737Z,19.60
2018-08-09T01:46:52.947Z,19.60
2018-08-09T01:49:22.159Z,19.60
2018-08-09T01:51:51.370Z,19.60
2018-08-09T01:54:20.603Z,19.50
2018-08-09T01:56:49.763Z,19.60
2018-08-09T01:59:19.009Z,19.60
2018-08-09T02:01:48.233Z,19.60
2018-08-09T02:04:17.455Z,19.60
2018-08-09T02:06:46.723Z,19.60
2018-08-09T02:09:21.321Z,19.60
2018-08-09T02:11:50.503Z,19.70
2018-08-09T02:14:19.746Z,19.60
2018-08-09T02:16:49.581Z,19.60
2018-08-09T02:19:18.740Z,19.60
2018-08-09T02:21:48.013Z,19.70
2018-08-09T02:24:17.264Z,19.60
2018-08-09T02:26:47.141Z,19.50
2018-08-09T02:29:16.411Z,19.60
2018-08-09T02:31:45.616Z,19.60
2018-08-09T02:34:15.260Z,19.60
2018-08-09T02:36:44.413Z,19.60
2018-08-09T02:39:13.637Z,19.60
2018-08-09T02:41:42.929Z,19.60
2018-08-09T02:44:12.079Z,19.50
2018-08-09T02:46:41.374Z,19.50
2018-08-09T02:49:10.497Z,19.50
2018-08-09T02:51:39.746Z,19.50
2018-08-09T02:54:09.087Z,19.40
2018-08-09T02:56:38.207Z,19.40
2018-08-09T02:59:08.090Z,19.40
2018-08-09T03:01:37.380Z,19.40
2018-08-09T03:04:07.002Z,19.40
2018-08-09T03:06:36.330Z,19.40
2018-08-09T03:09:09.348Z,19.40
2018-08-09T03:11:38.482Z,19.40
2018-08-09T03:14:07.719Z,19.30
2018-08-09T03:16:36.835Z,19.30
2018-08-09T03:19:06.051Z,19.20
2018-08-09T03:21:35.257Z,19.20
2018-08-09T03:24:04.547Z,19.30
2018-08-09T03:26:33.761Z,19.40
2018-08-09T03:29:03.044Z,19.40
2018-08-09T03:31:32.267Z,19.40
2018-08-09T03:34:01.420Z,19.40
2018-08-09T03:36:31.028Z,19.40
2018-08-09T03:39:00.473Z,19.40
2018-08-09T03:41:29.644Z,19.40
2018-08-09T03:43:58.931Z,19.30
2018-08-09T03:46:28.835Z,19.40
2018-08-09T03:48:58.005Z,19.30
2018-08-09T03:51:27.147Z,19.30
2018-08-09T03:53:56.429Z,19.30
2018-08-09T03:56:25.595Z,19.30
2018-08-09T03:58:54.839Z,19.30
2018-08-09T04:01:24.184Z,19.20
2018-08-09T04:03:53.571Z,19.20
2018-08-09T04:06:22.801Z,19.20
2018-08-09T04:08:52.079Z,19.20
2018-08-09T04:11:21.221Z,19.20
2018-08-09T04:13:50.311Z,19.10
2018-08-09T04:16:19.458Z,19.10
2018-08-09T04:18:49.283Z,19.10
2018-08-09T04:21:18.564Z,19.10
2018-08-09T04:23:47.787Z,19.20
2018-08-09T04:26:17.609Z,19.30
2018-08-09T04:28:46.803Z,19.30
2018-08-09T04:31:16.076Z,19.30
2018-08-09T04:33:45.497Z,19.30
2018-08-09T04:36:14.721Z,19.30
2018-08-09T04:38:44.235Z,19.20
2018-08-09T04:41:13.379Z,19.20
2018-08-09T04:43:42.557Z,19.20
2018-08-09T04:46:11.725Z,19.20
2018-08-09T04:48:40.903Z,19.20
2018-08-09T04:51:10.113Z,19.30
2018-08-09T04:53:39.297Z,19.30
2018-08-09T04:56:08.565Z,19.40
2018-08-09T04:58:37.834Z,19.40
2018-08-09T05:01:07.056Z,19.40
2018-08-09T05:03:36.168Z,19.40
2018-08-09T05:06:05.439Z,19.30
2018-08-09T05:08:34.590Z,19.30
2018-08-09T05:11:03.741Z,19.30
2018-08-09T05:13:33.393Z,19.30
2018-08-09T05:16:02.618Z,19.30
2018-08-09T05:18:32.355Z,19.30
2018-08-09T05:21:01.480Z,19.40
2018-08-09T05:23:30.756Z,19.40
2018-08-09T05:25:59.913Z,19.30
2018-08-09T05:28:29.061Z,19.30
2018-08-09T05:30:58.407Z,19.40
2018-08-09T05:33:27.815Z,19.30
2018-08-09T05:35:56.973Z,19.20
2018-08-09T05:38:26.181Z,19.30
2018-08-09T05:40:56.127Z,19.40
2018-08-09T05:43:26.313Z,19.60
2018-08-09T05:45:55.513Z,19.50
2018-08-09T05:48:24.684Z,19.60
2018-08-09T05:50:54.034Z,19.70
2018-08-09T05:53:23.130Z,19.70
2018-08-09T05:55:52.853Z,19.60
2018-08-09T05:58:22.131Z,19.60
2018-08-09T06:00:51.280Z,19.70
2018-08-09T06:03:20.451Z,19.80
2018-08-09T06:05:50.461Z,19.90
2018-08-09T06:08:19.599Z,19.70
2018-08-09T06:10:49.634Z,19.80
2018-08-09T06:13:18.842Z,19.80
2018-08-09T06:15:48.883Z,19.90
2018-08-09T06:18:18.213Z,20.00
2018-08-09T06:20:47.421Z,20.10
2018-08-09T06:23:16.689Z,20.20
2018-08-09T06:25:45.908Z,20.30
2018-08-09T06:28:15.168Z,20.30
2018-08-09T06:30:44.414Z,20.40
2018-08-09T06:33:13.647Z,20.50
2018-08-09T06:35:42.803Z,20.70
2018-08-09T06:38:12.063Z,20.70
2018-08-09T06:40:41.323Z,20.80
2018-08-09T06:43:10.717Z,20.80
2018-08-09T06:45:40.656Z,20.90
2018-08-09T06:48:09.979Z,20.90
2018-08-09T06:50:39.236Z,21.00
2018-08-09T06:53:08.835Z,21.10
2018-08-09T06:55:38.209Z,21.20
2018-08-09T06:58:07.605Z,21.30
2018-08-09T07:00:37.672Z,21.40
2018-08-09T07:03:07.135Z,21.50
2018-08-09T07:05:36.371Z,21.60
2018-08-09T07:08:05.587Z,21.80
2018-08-09T07:10:35.641Z,21.70
2018-08-09T07:13:05.007Z,21.80
2018-08-09T07:15:34.528Z,21.80
2018-08-09T07:18:03.819Z,21.90
2018-08-09T07:20:32.957Z,22.00
2018-08-09T07:23:03.155Z,22.10
2018-08-09T07:25:32.397Z,22.30
2018-08-09T07:28:01.774Z,22.30
2018-08-09T07:30:30.975Z,22.50
2018-08-09T07:33:00.250Z,22.60
2018-08-09T07:35:29.437Z,22.60
2018-08-09T07:37:58.649Z,22.80
2018-08-09T07:40:30.963Z,22.90
2018-08-09T07:43:01.018Z,23.10
2018-08-09T07:45:33.195Z,23.10
2018-08-09T07:48:03.427Z,23.20
2018-08-09T07:50:32.751Z,23.40
2018-08-09T07:53:02.823Z,23.50
2018-08-09T07:55:37.231Z,23.60
2018-08-09T07:58:08.100Z,23.70
2018-08-09T08:00:39.097Z,23.80
2018-08-09T08:03:09.447Z,23.90
2018-08-09T08:05:39.788Z,23.90
2018-08-09T08:08:09.933Z,24.00
2018-08-09T08:10:48.285Z,23.80
2018-08-09T08:13:21.249Z,24.00
2018-08-09T08:15:50.850Z,24.20
2018-08-09T08:18:21.313Z,24.40
2018-08-09T08:20:51.579Z,24.60
2018-08-09T08:23:23.549Z,24.70
2018-08-09T08:25:55.883Z,24.90
2018-08-09T08:28:27.556Z,25.00
2018-08-09T08:31:01.198Z,25.20
2018-08-09T08:33:32.870Z,25.20
2018-08-09T08:36:06.334Z,25.20
2018-08-09T08:38:36.506Z,25.30
2018-08-09T08:41:11.176Z,25.50
2018-08-09T08:43:43.614Z,25.60
2018-08-09T08:46:13.598Z,25.50
2018-08-09T08:48:43.214Z,25.70
2018-08-09T08:51:17.472Z,25.40
2018-08-09T08:53:49.556Z,25.30
2018-08-09T08:56:19.500Z,25.40
2018-08-09T08:58:54.870Z,25.50
2018-08-09T09:01:24.784Z,25.60
2018-08-09T09:03:59.828Z,25.80
2018-08-09T09:06:31.252Z,25.90
2018-08-09T09:09:00.754Z,26.00
2018-08-09T09:11:37.010Z,26.10
2018-08-09T09:14:13.856Z,26.20
2018-08-09T09:16:45.218Z,26.40
2018-08-09T09:19:21.174Z,26.60
2018-08-09T09:21:51.942Z,26.60
2018-08-09T09:24:22.542Z,26.70
2018-08-09T09:26:52.479Z,26.70
2018-08-09T09:29:26.160Z,26.70
2018-08-09T09:31:59.332Z,26.80
2018-08-09T09:34:32.512Z,26.70
2018-08-09T09:37:01.970Z,26.90
2018-08-09T09:39:36.276Z,27.00
2018-08-09T09:42:05.476Z,27.10
2018-08-09T09:44:34.658Z,27.10
2018-08-09T09:47:04.142Z,27.10
2018-08-09T09:49:33.351Z,27.40
2018-08-09T09:52:02.554Z,27.50
2018-08-09T09:54:31.675Z,27.80
2018-08-09T09:57:00.904Z,28.10
2018-08-09T09:59:30.459Z,28.10
2018-08-09T10:01:59.686Z,28.10
2018-08-09T10:04:29.484Z,28.20
2018-08-09T10:06:58.801Z,28.20
2018-08-09T10:09:28.396Z,28.20
2018-08-09T10:11:57.548Z,28.40
2018-08-09T10:14:26.642Z,28.30
2018-08-09T10:16:55.916Z,28.40
2018-08-09T10:19:25.517Z,28.30
2018-08-09T10:21:54.638Z,28.70
2018-08-09T10:24:23.764Z,28.80
2018-08-09T10:26:53.098Z,29.30
2018-08-09T10:29:22.236Z,29.10
2018-08-09T10:31:51.934Z,29.00
2018-08-09T10:34:21.479Z,29.20
2018-08-09T10:36:50.780Z,29.30
2018-08-09T10:39:19.894Z,29.40
2018-08-09T10:41:49.063Z,29.40
2018-08-09T10:44:18.330Z,29.30
2018-08-09T10:46:47.518Z,29.20
2018-08-09T10:49:16.974Z,29.10
2018-08-09T10:51:46.580Z,29.00
2018-08-09T10:54:16.226Z,28.50
2018-08-09T10:56:45.999Z,28.40
2018-08-09T10:59:15.131Z,28.60
2018-08-09T11:01:44.357Z,28.80
2018-08-09T11:04:13.449Z,28.90
2018-08-09T11:06:42.825Z,29.20
2018-08-09T11:09:12.809Z,29.30
2018-08-09T11:11:42.000Z,29.70
2018-08-09T11:14:11.301Z,30.00
2018-08-09T11:16:40.483Z,29.70
2018-08-09T11:19:09.604Z,29.90
2018-08-09T11:21:38.805Z,29.70
2018-08-09T11:24:08.150Z,29.30
2018-08-09T11:26:37.511Z,29.60
2018-08-09T11:29:06.930Z,29.60
2018-08-09T11:31:36.535Z,29.60
2018-08-09T11:34:05.906Z,29.70
2018-08-09T11:36:36.169Z,29.60
2018-08-09T11:39:09.276Z,29.30
2018-08-09T11:41:38.448Z,29.70
2018-08-09T11:44:09.804Z,29.70
2018-08-09T11:46:38.995Z,29.50
2018-08-09T11:49:08.360Z,29.40
2018-08-09T11:51:37.834Z,29.10
2018-08-09T11:54:07.288Z,29.40
2018-08-09T11:56:38.866Z,29.30
2018-08-09T11:59:07.908Z,29.20
2018-08-09T12:01:37.071Z,29.40
2018-08-09T12:04:06.295Z,29.50
2018-08-09T12:06:35.498Z,29.50
2018-08-09T12:09:07.821Z,29.40
2018-08-09T12:11:37.379Z,29.20
2018-08-09T12:14:07.181Z,28.90
2018-08-09T12:16:36.820Z,28.70
2018-08-09T12:19:06.769Z,28.60
2018-08-09T12:21:35.904Z,28.30
2018-08-09T12:24:05.127Z,27.80
2018-08-09T12:26:34.416Z,27.50
2018-08-09T12:29:03.920Z,27.60
2018-08-09T12:31:33.195Z,27.30
2018-08-09T12:34:02.346Z,27.20
2018-08-09T12:36:31.706Z,27.30
2018-08-09T12:39:00.976Z,27.50
2018-08-09T12:41:30.173Z,27.70
2018-08-09T12:43:59.410Z,27.70
2018-08-09T12:46:28.565Z,27.50
2018-08-09T12:48:57.684Z,27.50
2018-08-09T12:51:26.916Z,27.90
2018-08-09T12:53:56.190Z,28.20
2018-08-09T12:56:25.407Z,28.30
2018-08-09T12:58:54.606Z,27.80
2018-08-09T13:01:23.896Z,27.40
2018-08-09T13:03:53.069Z,27.30
2018-08-09T13:06:22.204Z,27.40
2018-08-09T13:08:51.416Z,27.20
2018-08-09T13:11:21.827Z,26.90
2018-08-09T13:13:51.722Z,26.90
2018-08-09T13:16:20.914Z,26.60
2018-08-09T13:18:50.245Z,26.80
2018-08-09T13:21:19.337Z,27.00
2018-08-09T13:23:48.551Z,27.30
2018-08-09T13:26:17.734Z,27.10
2018-08-09T13:28:47.108Z,27.20
2018-08-09T13:31:16.294Z,27.40
2018-08-09T13:33:45.567Z,27.90
2018-08-09T13:36:14.656Z,28.20
2018-08-09T13:38:43.912Z,28.20
2018-08-09T13:41:13.141Z,28.10
2018-08-09T13:43:42.337Z,28.50
2018-08-09T13:46:11.525Z,28.60
2018-08-09T13:48:40.694Z,28.20
2018-08-09T13:51:09.823Z,28.30
2018-08-09T13:53:39.010Z,28.10
2018-08-09T13:56:08.390Z,28.30
2018-08-09T13:58:37.519Z,28.00
2018-08-09T14:01:06.689Z,28.00
2018-08-09T14:03:35.856Z,27.90
2018-08-09T14:06:05.003Z,27.80
2018-08-09T14:08:34.209Z,27.90
2018-08-09T14:11:03.485Z,27.70
2018-08-09T14:13:32.657Z,27.70
2018-08-09T14:16:01.867Z,27.80
2018-08-09T14:18:31.157Z,27.90
2018-08-09T14:21:00.326Z,27.90
2018-08-09T14:23:29.462Z,28.10
2018-08-09T14:25:58.681Z,28.50
2018-08-09T14:28:27.906Z,28.40
2018-08-09T14:30:57.049Z,28.00
2018-08-09T14:33:26.187Z,27.90
2018-08-09T14:35:55.640Z,27.50
2018-08-09T14:38:24.767Z,27.00
2018-08-09T14:40:54.027Z,26.70
2018-08-09T14:43:23.231Z,26.70
2018-08-09T14:45:52.441Z,26.30
2018-08-09T14:48:21.577Z,26.20
2018-08-09T14:50:50.791Z,26.00
2018-08-09T14:53:19.919Z,26.00
2018-08-09T14:55:49.153Z,25.90
2018-08-09T14:58:18.580Z,25.80
2018-08-09T15:00:47.685Z,25.70
2018-08-09T15:03:17.258Z,25.60
2018-08-09T15:05:46.446Z,25.40
2018-08-09T15:08:15.582Z,25.20
2018-08-09T15:10:44.818Z,24.80
2018-08-09T15:13:14.123Z,24.60
2018-08-09T15:15:43.460Z,24.50
2018-08-09T15:18:12.669Z,24.50
2018-08-09T15:20:41.901Z,24.30
2018-08-09T15:23:11.057Z,24.20
2018-08-09T15:25:40.255Z,24.10
2018-08-09T15:28:09.377Z,23.90
2018-08-09T15:30:38.529Z,23.90
2018-08-09T15:33:07.705Z,23.80
2018-08-09T15:35:36.877Z,23.70
2018-08-09T15:38:06.375Z,23.40
2018-08-09T15:40:35.411Z,23.40
2018-08-09T15:43:04.691Z,23.40
2018-08-09T15:45:33.851Z,23.40
2018-08-09T15:48:03.039Z,23.40
2018-08-09T15:50:32.221Z,23.20
2018-08-09T15:53:01.467Z,23.10
2018-08-09T15:55:30.702Z,23.10
2018-08-09T15:57:59.916Z,22.90
2018-08-09T16:00:29.204Z,22.90
2018-08-09T16:02:58.363Z,22.80
2018-08-09T16:05:27.517Z,22.80
2018-08-09T16:07:56.692Z,22.80
2018-08-09T16:10:25.887Z,22.60
2018-08-09T16:12:55.089Z,22.60
2018-08-09T16:15:24.286Z,22.60
2018-08-09T16:17:53.519Z,22.70
2018-08-09T16:20:22.687Z,22.70
2018-08-09T16:22:51.888Z,22.80
2018-08-09T16:25:21.068Z,22.90
2018-08-09T16:27:50.665Z,23.00
2018-08-09T16:30:21.883Z,22.90
2018-08-09T16:32:51.186Z,22.80
2018-08-09T16:35:20.575Z,22.70
2018-08-09T16:37:49.984Z,22.40
2018-08-09T16:40:20.978Z,22.40
2018-08-09T16:42:50.361Z,22.40
2018-08-09T16:45:20.627Z,22.30
2018-08-09T16:47:50.575Z,22.30
2018-08-09T16:50:21.519Z,22.30
2018-08-09T16:52:52.169Z,22.30
2018-08-09T16:55:22.833Z,22.40
2018-08-09T16:57:52.081Z,22.30
2018-08-09T17:00:23.477Z,22.20
2018-08-09T17:02:54.037Z,22.20
2018-08-09T17:05:24.581Z,22.20
2018-08-09T17:07:53.916Z,22.00
2018-08-09T17:10:24.451Z,22.00
2018-08-09T17:12:53.648Z,22.00
2018-08-09T17:15:24.937Z,21.90
2018-08-09T17:17:54.736Z,21.80
2018-08-09T17:20:28.437Z,21.40
2018-08-09T17:22:57.910Z,21.40
2018-08-09T17:25:27.254Z,21.30
2018-08-09T17:27:56.453Z,21.40
2018-08-09T17:30:26.851Z,21.40
2018-08-09T17:32:57.059Z,21.20
2018-08-09T17:35:26.273Z,21.40
2018-08-09T17:37:55.510Z,21.50
2018-08-09T17:40:27.618Z,21.60
2018-08-09T17:42:57.599Z,21.60
2018-08-09T17:45:29.108Z,21.60
2018-08-09T17:47:58.331Z,21.40
2018-08-09T17:50:27.589Z,21.30
2018-08-09T17:52:58.554Z,21.40
2018-08-09T17:55:28.361Z,21.40
2018-08-09T17:57:57.523Z,21.40
2018-08-09T18:00:29.091Z,21.30
2018-08-09T18:02:58.602Z,21.40
2018-08-09T18:05:27.825Z,21.20
2018-08-09T18:07:57.935Z,21.20
2018-08-09T18:10:29.737Z,21.20
2018-08-09T18:12:58.890Z,21.20
2018-08-09T18:15:29.101Z,21.20
2018-08-09T18:17:58.892Z,21.10
2018-08-09T18:20:29.939Z,21.00
2018-08-09T18:22:59.449Z,21.00
2018-08-09T18:25:28.605Z,21.10
2018-08-09T18:27:57.980Z,21.10
2018-08-09T18:30:27.177Z,21.10
2018-08-09T18:32:56.431Z,21.10
2018-08-09T18:35:25.677Z,21.00
2018-08-09T18:37:54.929Z,21.00
2018-08-09T18:40:25.699Z,21.00
2018-08-09T18:42:54.931Z,20.90
2018-08-09T18:45:24.433Z,21.00
2018-08-09T18:47:53.708Z,21.00
2018-08-09T18:50:24.653Z,21.00
2018-08-09T18:52:54.071Z,20.90
2018-08-09T18:55:23.313Z,20.80
2018-08-09T18:57:52.817Z,20.80
2018-08-09T19:00:26.001Z,20.80
2018-08-09T19:02:56.267Z,20.80
2018-08-09T19:05:26.339Z,20.80
2018-08-09T19:07:55.823Z,20.80
2018-08-09T19:10:26.901Z,20.80
2018-08-09T19:12:56.169Z,20.80
2018-08-09T19:15:25.533Z,20.80
2018-08-09T19:17:54.756Z,20.80
2018-08-09T19:20:27.627Z,20.80
2018-08-09T19:22:57.261Z,20.70
2018-08-09T19:25:26.476Z,20.80
2018-08-09T19:27:55.736Z,20.80
2018-08-09T19:30:26.821Z,20.70
2018-08-09T19:32:56.133Z,20.70
2018-08-09T19:35:25.450Z,20.70
2018-08-09T19:37:54.705Z,20.70
2018-08-09T19:40:29.633Z,20.60
2018-08-09T19:42:58.869Z,20.60
2018-08-09T19:45:28.193Z,20.60
2018-08-09T19:47:57.639Z,20.60
2018-08-09T19:50:27.115Z,20.60
2018-08-09T19:52:56.383Z,20.60
2018-08-09T19:55:26.714Z,20.60
2018-08-09T19:57:56.285Z,20.60
2018-08-09T20:00:27.684Z,20.60
2018-08-09T20:02:57.021Z,20.60
2018-08-09T20:05:26.496Z,20.60
2018-08-09T20:07:56.386Z,20.50
2018-08-09T20:10:25.883Z,20.50
2018-08-09T20:12:55.433Z,20.50
2018-08-09T20:15:25.145Z,20.50
2018-08-09T20:17:54.613Z,20.40
2018-08-09T20:20:25.431Z,20.50
2018-08-09T20:22:55.307Z,20.50
2018-08-09T20:25:24.729Z,20.50
2018-08-09T20:27:54.161Z,20.40
2018-08-09T20:30:23.520Z,20.40
2018-08-09T20:32:52.943Z,20.30
2018-08-09T20:35:23.847Z,20.30
2018-08-09T20:37:53.883Z,20.30
2018-08-09T20:40:24.061Z,20.30
2018-08-09T20:42:54.538Z,20.30
2018-08-09T20:45:24.898Z,20.40
2018-08-09T20:47:54.405Z,20.40
2018-08-09T20:50:27.453Z,20.40
2018-08-09T20:52:57.344Z,20.40
2018-08-09T20:55:27.218Z,20.30
2018-08-09T20:57:57.530Z,20.30
2018-08-09T21:00:28.530Z,20.40
2018-08-09T21:02:59.511Z,20.40
2018-08-09T21:05:31.727Z,20.40
2018-08-09T21:08:01.671Z,20.40
2018-08-09T21:10:31.600Z,20.40
2018-08-09T21:13:01.062Z,20.40
2018-08-09T21:15:30.653Z,20.40
2018-08-09T21:18:00.021Z,20.40
2018-08-09T21:20:29.440Z,20.40
2018-08-09T21:22:58.922Z,20.40
2018-08-09T21:25:28.302Z,20.40
2018-08-09T21:27:57.735Z,20.40
2018-08-09T21:30:27.224Z,20.40
2018-08-09T21:32:56.626Z,20.40
2018-08-09T21:35:26.332Z,20.40
2018-08-09T21:37:55.768Z,20.30
2018-08-09T21:40:36.200Z,20.40
2018-08-09T21:43:05.652Z,20.30
2018-08-09T21:45:35.530Z,20.30
2018-08-09T21:48:05.074Z,20.40
2018-08-09T21:50:34.566Z,20.40
2018-08-09T21:53:03.888Z,20.40
2018-08-09T21:55:33.537Z,20.40
2018-08-09T21:58:02.918Z,20.30
2018-08-09T22:00:58.652Z,20.30
2018-08-09T22:03:30.377Z,20.20
2018-08-09T22:06:05.194Z,20.20
2018-08-09T22:08:40.057Z,20.30
2018-08-09T22:11:16.198Z,20.30
2018-08-09T22:13:51.337Z,20.30
2018-08-09T22:16:25.928Z,20.30
2018-08-09T22:19:00.602Z,20.30
2018-08-09T22:21:35.260Z,20.40
2018-08-09T22:24:05.077Z,20.40
2018-08-09T22:26:34.412Z,20.30
2018-08-09T22:29:04.145Z,20.30
2018-08-09T22:31:33.449Z,20.30
2018-08-09T22:34:02.879Z,20.30
2018-08-09T22:36:32.260Z,20.20
2018-08-09T22:39:01.884Z,20.10
2018-08-09T22:41:31.293Z,20.10
2018-08-09T22:44:00.717Z,19.90
2018-08-09T22:46:30.191Z,19.90
2018-08-09T22:48:59.616Z,19.90
2018-08-09T22:51:28.868Z,19.90
2018-08-09T22:53:58.381Z,19.90
2018-08-09T22:56:27.781Z,19.90
2018-08-09T22:58:57.339Z,19.90
2018-08-09T23:01:26.651Z,19.90
2018-08-09T23:03:55.887Z,19.90
2018-08-09T23:06:25.422Z,19.90
2018-08-09T23:08:55.240Z,19.80
2018-08-09T23:11:24.859Z,19.80
2018-08-09T23:13:54.255Z,19.80
2018-08-09T23:16:23.780Z,19.80
2018-08-09T23:18:53.320Z,19.80
2018-08-09T23:21:22.922Z,19.80
2018-08-09T23:23:52.374Z,19.70
2018-08-09T23:26:21.917Z,19.70
2018-08-09T23:28:51.292Z,19.60
2018-08-09T23:31:20.767Z,19.60
2018-08-09T23:33:50.140Z,19.50
2018-08-09T23:36:19.596Z,19.50
2018-08-09T23:38:48.916Z,19.40
2018-08-09T23:41:18.220Z,19.40
2018-08-09T23:43:47.784Z,19.30
2018-08-09T23:46:17.192Z,19.20
2018-08-09T23:48:46.786Z,19.20
2018-08-09T23:51:16.266Z,19.10
2018-08-09T23:53:45.646Z,19.20
2018-08-09T23:56:15.128Z,19.20
2018-08-09T23:58:44.555Z,19.10
